SHT2P EGLL-EGCC
Flight info
| Callsign | SHT2P |
|---|---|
| Flight time | 0h 27m |
| Altitude | 18000 |
| Route | ULTIB T420 ELVOS |
| Aircraft | A320/M-SDE3FGHIRWY/LB1 |
Departure
| Time | 2026-05-07 13:44 |
|---|---|
| Airport | London Heathrow Airport (EGLL) |
Arrival
| Time | 2026-05-07 14:12 |
|---|---|
| Airport | Manchester Airport (EGCC) |
| Time | Latitude | Longitude | Altitude | Speed | Heading |
|---|---|---|---|---|---|
| 2026-05-07 13:44 | 51.53443 | -0.42478 | 3541 ft | 257 kts | 334° |
| 2026-05-07 13:44 | 51.55089 | -0.43692 | 4518 ft | 262 kts | 334° |
| 2026-05-07 13:45 | 51.56757 | -0.44909 | 5523 ft | 266 kts | 334° |
| 2026-05-07 13:45 | 51.58458 | -0.46138 | 6493 ft | 270 kts | 334° |
| 2026-05-07 13:45 | 51.60195 | -0.47381 | 7369 ft | 276 kts | 335° |
| 2026-05-07 13:45 | 51.61968 | -0.48641 | 8242 ft | 281 kts | 335° |
| 2026-05-07 13:46 | 51.63775 | -0.49920 | 9115 ft | 287 kts | 335° |
| 2026-05-07 13:46 | 51.65622 | -0.51223 | 9986 ft | 292 kts | 336° |
| 2026-05-07 13:46 | 51.67536 | -0.52573 | 10474 ft | 311 kts | 336° |
| 2026-05-07 13:46 | 51.69590 | -0.54030 | 10736 ft | 334 kts | 335° |
| 2026-05-07 13:47 | 51.71775 | -0.55580 | 11154 ft | 350 kts | 336° |
| 2026-05-07 13:47 | 51.74027 | -0.57174 | 11805 ft | 356 kts | 336° |
| 2026-05-07 13:47 | 51.76311 | -0.58790 | 12527 ft | 360 kts | 336° |
| 2026-05-07 13:47 | 51.78620 | -0.60424 | 13258 ft | 364 kts | 336° |
| 2026-05-07 13:48 | 51.80920 | -0.62055 | 13976 ft | 368 kts | 335° |
| 2026-05-07 13:48 | 51.83282 | -0.63734 | 14646 ft | 372 kts | 335° |
| 2026-05-07 13:48 | 51.85659 | -0.65427 | 15289 ft | 375 kts | 335° |
| 2026-05-07 13:48 | 51.88054 | -0.67136 | 15929 ft | 378 kts | 335° |
| 2026-05-07 13:49 | 51.90469 | -0.68861 | 16551 ft | 381 kts | 335° |
| 2026-05-07 13:49 | 51.92906 | -0.70604 | 17193 ft | 384 kts | 335° |
| 2026-05-07 13:49 | 51.95358 | -0.72360 | 17809 ft | 387 kts | 334° |
| 2026-05-07 13:49 | 51.97827 | -0.74133 | 18017 ft | 389 kts | 334° |
| 2026-05-07 13:50 | 52.00353 | -0.75950 | 18059 ft | 407 kts | 334° |
| 2026-05-07 13:50 | 52.02998 | -0.77849 | 18055 ft | 421 kts | 335° |
| 2026-05-07 13:50 | 52.05687 | -0.79783 | 18059 ft | 424 kts | 335° |
| 2026-05-07 13:50 | 52.08389 | -0.81730 | 18055 ft | 425 kts | 335° |
| 2026-05-07 13:51 | 52.11092 | -0.83678 | 18055 ft | 425 kts | 335° |
| 2026-05-07 13:51 | 52.13801 | -0.85631 | 18054 ft | 426 kts | 334° |
| 2026-05-07 13:51 | 52.16509 | -0.87590 | 18053 ft | 426 kts | 334° |
| 2026-05-07 13:51 | 52.19214 | -0.89553 | 18052 ft | 426 kts | 334° |
| 2026-05-07 13:52 | 52.21882 | -0.91494 | 18051 ft | 426 kts | 334° |
| 2026-05-07 13:52 | 52.24623 | -0.93486 | 18050 ft | 426 kts | 334° |
| 2026-05-07 13:52 | 52.27292 | -0.95425 | 18060 ft | 426 kts | 334° |
| 2026-05-07 13:52 | 52.29998 | -0.97390 | 18063 ft | 426 kts | 334° |
| 2026-05-07 13:53 | 52.32707 | -0.99361 | 18072 ft | 426 kts | 334° |
| 2026-05-07 13:53 | 52.35408 | -1.01331 | 18066 ft | 426 kts | 334° |
| 2026-05-07 13:53 | 52.38112 | -1.03309 | 18062 ft | 426 kts | 334° |
| 2026-05-07 13:53 | 52.40821 | -1.05297 | 18056 ft | 426 kts | 334° |
| 2026-05-07 13:54 | 52.43525 | -1.07285 | 18039 ft | 426 kts | 334° |
| 2026-05-07 13:54 | 52.46228 | -1.09273 | 18036 ft | 426 kts | 334° |
| 2026-05-07 13:54 | 52.48938 | -1.11262 | 18030 ft | 426 kts | 334° |
| 2026-05-07 13:54 | 52.51645 | -1.13252 | 18028 ft | 426 kts | 334° |
| 2026-05-07 13:55 | 52.54344 | -1.15240 | 18033 ft | 426 kts | 334° |
| 2026-05-07 13:55 | 52.56979 | -1.17463 | 18028 ft | 424 kts | 327° |
| 2026-05-07 13:55 | 52.59488 | -1.20007 | 18025 ft | 424 kts | 327° |
| 2026-05-07 13:55 | 52.62001 | -1.22551 | 18021 ft | 424 kts | 327° |
| 2026-05-07 13:56 | 52.64516 | -1.25094 | 18018 ft | 424 kts | 327° |
| 2026-05-07 13:56 | 52.67033 | -1.27642 | 18020 ft | 424 kts | 327° |
| 2026-05-07 13:56 | 52.69548 | -1.30192 | 18018 ft | 424 kts | 327° |
| 2026-05-07 13:56 | 52.72061 | -1.32748 | 18019 ft | 424 kts | 327° |
| 2026-05-07 13:57 | 52.74572 | -1.35308 | 18044 ft | 424 kts | 327° |
| 2026-05-07 13:57 | 52.77083 | -1.37874 | 18051 ft | 424 kts | 327° |
| 2026-05-07 13:57 | 52.79594 | -1.40440 | 18050 ft | 424 kts | 327° |
| 2026-05-07 13:57 | 52.82104 | -1.43004 | 18053 ft | 424 kts | 327° |
| 2026-05-07 13:58 | 52.84611 | -1.45568 | 18038 ft | 423 kts | 327° |
| 2026-05-07 13:58 | 52.87070 | -1.48084 | 17763 ft | 407 kts | 327° |
| 2026-05-07 13:58 | 52.89445 | -1.50514 | 17299 ft | 398 kts | 327° |
| 2026-05-07 13:58 | 52.91790 | -1.52921 | 16716 ft | 394 kts | 326° |
| 2026-05-07 13:59 | 52.94104 | -1.55309 | 16122 ft | 390 kts | 326° |
| 2026-05-07 13:59 | 52.96392 | -1.57673 | 15523 ft | 386 kts | 326° |
| 2026-05-07 13:59 | 52.98664 | -1.60024 | 14927 ft | 383 kts | 326° |
| 2026-05-07 13:59 | 53.00921 | -1.62358 | 14344 ft | 380 kts | 326° |
| 2026-05-07 14:00 | 53.03121 | -1.64629 | 14172 ft | 365 kts | 326° |
| 2026-05-07 14:00 | 53.05171 | -1.66958 | 14052 ft | 349 kts | 318° |
| 2026-05-07 14:00 | 53.06847 | -1.69746 | 13935 ft | 333 kts | 308° |
| 2026-05-07 14:00 | 53.08305 | -1.72588 | 13807 ft | 323 kts | 308° |
| 2026-05-07 14:01 | 53.09745 | -1.75386 | 13625 ft | 314 kts | 308° |
| 2026-05-07 14:01 | 53.11157 | -1.78122 | 13438 ft | 308 kts | 308° |
| 2026-05-07 14:01 | 53.12562 | -1.80852 | 12929 ft | 313 kts | 308° |
| 2026-05-07 14:01 | 53.13967 | -1.83585 | 12636 ft | 308 kts | 308° |
| 2026-05-07 14:02 | 53.15350 | -1.86273 | 11980 ft | 305 kts | 308° |
| 2026-05-07 14:02 | 53.16729 | -1.88952 | 11311 ft | 304 kts | 308° |
| 2026-05-07 14:02 | 53.18091 | -1.91606 | 10769 ft | 298 kts | 308° |
| 2026-05-07 14:02 | 53.19435 | -1.94231 | 10252 ft | 300 kts | 307° |
| 2026-05-07 14:03 | 53.20785 | -1.96879 | 9999 ft | 296 kts | 307° |
| 2026-05-07 14:03 | 53.22181 | -1.99336 | 9867 ft | 290 kts | 319° |
| 2026-05-07 14:03 | 53.23916 | -2.00890 | 9615 ft | 281 kts | 341° |
| 2026-05-07 14:03 | 53.25835 | -2.01287 | 9140 ft | 279 kts | 4° |
| 2026-05-07 14:04 | 53.27710 | -2.00504 | 8626 ft | 277 kts | 22° |
| 2026-05-07 14:04 | 53.29489 | -1.99326 | 8121 ft | 274 kts | 21° |
| 2026-05-07 14:04 | 53.31261 | -1.98172 | 7611 ft | 271 kts | 21° |
| 2026-05-07 14:04 | 53.33011 | -1.97037 | 7137 ft | 269 kts | 20° |
| 2026-05-07 14:05 | 53.34753 | -1.95909 | 6628 ft | 268 kts | 20° |
| 2026-05-07 14:05 | 53.36491 | -1.94789 | 6122 ft | 266 kts | 20° |
| 2026-05-07 14:05 | 53.38203 | -1.93689 | 5641 ft | 262 kts | 20° |
| 2026-05-07 14:05 | 53.39906 | -1.92636 | 5149 ft | 260 kts | 14° |
| 2026-05-07 14:06 | 53.41674 | -1.92362 | 4812 ft | 255 kts | 352° |
| 2026-05-07 14:06 | 53.43318 | -1.93090 | 4624 ft | 236 kts | 332° |
| 2026-05-07 14:06 | 53.44636 | -1.94518 | 4494 ft | 219 kts | 317° |
| 2026-05-07 14:06 | 53.45804 | -1.96105 | 4363 ft | 213 kts | 314° |
| 2026-05-07 14:07 | 53.46690 | -1.98069 | 4053 ft | 208 kts | 290° |
| 2026-05-07 14:07 | 53.47059 | -2.00334 | 3898 ft | 196 kts | 269° |
| 2026-05-07 14:07 | 53.46946 | -2.02553 | 3725 ft | 188 kts | 250° |
| 2026-05-07 14:07 | 53.46406 | -2.04517 | 3516 ft | 184 kts | 231° |
| 2026-05-07 14:08 | 53.45610 | -2.06202 | 3283 ft | 184 kts | 228° |
| 2026-05-07 14:08 | 53.44814 | -2.07863 | 3060 ft | 181 kts | 227° |
| 2026-05-07 14:08 | 53.44038 | -2.09481 | 2802 ft | 174 kts | 227° |
| 2026-05-07 14:08 | 53.43292 | -2.11040 | 2580 ft | 169 kts | 227° |
| 2026-05-07 14:09 | 53.42562 | -2.12560 | 2348 ft | 165 kts | 227° |
| 2026-05-07 14:09 | 53.41855 | -2.14033 | 2124 ft | 160 kts | 226° |
| 2026-05-07 14:09 | 53.41171 | -2.15459 | 1923 ft | 151 kts | 227° |
| 2026-05-07 14:09 | 53.40540 | -2.16774 | 1711 ft | 139 kts | 226° |
| 2026-05-07 14:10 | 53.39945 | -2.18011 | 1528 ft | 135 kts | 226° |
| 2026-05-07 14:10 | 53.39362 | -2.19220 | 1346 ft | 132 kts | 225° |
| 2026-05-07 14:10 | 53.38784 | -2.20417 | 1133 ft | 132 kts | 226° |
| 2026-05-07 14:10 | 53.38206 | -2.21613 | 966 ft | 132 kts | 226° |
| 2026-05-07 14:11 | 53.37633 | -2.22803 | 811 ft | 133 kts | 228° |
| 2026-05-07 14:11 | 53.37057 | -2.24021 | 598 ft | 133 kts | 228° |
| 2026-05-07 14:11 | 53.36472 | -2.25234 | 393 ft | 134 kts | 227° |
| 2026-05-07 14:11 | 53.35894 | -2.26425 | 274 ft | 131 kts | 229° |
| 2026-05-07 14:12 | 53.35405 | -2.27431 | 243 ft | 88 kts | 231° |
| 2026-05-07 14:12 | 53.35145 | -2.27968 | 234 ft | 29 kts | 230° |
| 2026-05-07 14:12 | 53.35085 | -2.28102 | 233 ft | 8 kts | 250° |
| 2026-05-07 14:12 | 53.35128 | -2.28190 | 231 ft | 13 kts | 328° |
| 2026-05-07 14:13 | 53.35224 | -2.28194 | 231 ft | 10 kts | 7° |
| 2026-05-07 14:13 | 53.35274 | -2.28184 | 232 ft | 0 kts | 6° |
| 2026-05-07 14:14 | 53.35275 | -2.28183 | 232 ft | 1 kts | 6° |
| 2026-05-07 14:14 | 53.35311 | -2.28178 | 234 ft | 9 kts | 5° |
| 2026-05-07 14:14 | 53.35385 | -2.28166 | 236 ft | 11 kts | 6° |
| 2026-05-07 14:15 | 53.35469 | -2.28143 | 234 ft | 15 kts | 17° |
| 2026-05-07 14:15 | 53.35559 | -2.28035 | 237 ft | 16 kts | 47° |
| 2026-05-07 14:15 | 53.35617 | -2.27917 | 240 ft | 10 kts | 45° |
| 2026-05-07 14:15 | 53.35681 | -2.27885 | 244 ft | 9 kts | 6° |
| 2026-05-07 14:16 | 53.35742 | -2.27874 | 247 ft | 9 kts | 5° |
| 2026-05-07 14:16 | 53.35805 | -2.27864 | 250 ft | 8 kts | 5° |
| 2026-05-07 14:16 | 53.35867 | -2.27854 | 254 ft | 10 kts | 6° |
| 2026-05-07 14:16 | 53.35950 | -2.27856 | 255 ft | 15 kts | 344° |
| 2026-05-07 14:17 | 53.36048 | -2.27983 | 255 ft | 20 kts | 319° |
| 2026-05-07 14:17 | 53.36158 | -2.28154 | 255 ft | 23 kts | 316° |
| 2026-05-07 14:17 | 53.36279 | -2.28359 | 255 ft | 25 kts | 314° |
| 2026-05-07 14:17 | 53.36371 | -2.28475 | 255 ft | 16 kts | 350° |
| 2026-05-07 14:18 | 53.36474 | -2.28579 | 255 ft | 19 kts | 311° |
| 2026-05-07 14:18 | 53.36571 | -2.28751 | 255 ft | 22 kts | 304° |
| 2026-05-07 14:18 | 53.36636 | -2.28928 | 255 ft | 13 kts | 292° |
| 2026-05-07 14:18 | 53.36701 | -2.29051 | 255 ft | 16 kts | 315° |
| 2026-05-07 14:19 | 53.36787 | -2.29102 | 255 ft | 15 kts | 20° |
| 2026-05-07 14:19 | 53.36880 | -2.29009 | 255 ft | 17 kts | 45° |
| 2026-05-07 14:19 | 53.36945 | -2.28903 | 255 ft | 11 kts | 44° |
| 2026-05-07 14:19 | 53.36972 | -2.28851 | 255 ft | 3 kts | 66° |
| 2026-05-07 14:20 | 53.36959 | -2.28810 | 255 ft | 5 kts | 130° |
| 2026-05-07 14:20 | 53.36930 | -2.28760 | 255 ft | 3 kts | 135° |
| 2026-05-07 14:20 | 53.36920 | -2.28743 | 255 ft | 0 kts | 135° |